createdAt,value
2023-04-16T00:00:57.242Z,11.85
2023-04-16T00:01:58.938Z,11.86
2023-04-16T00:03:00.678Z,11.87
2023-04-16T00:04:02.931Z,11.88
2023-04-16T00:05:05.319Z,11.89
2023-04-16T00:06:07.200Z,11.91
2023-04-16T00:07:08.787Z,11.76
2023-04-16T00:08:10.304Z,11.32
2023-04-16T00:09:11.913Z,11.09
2023-04-16T00:10:14.466Z,11.12
2023-04-16T00:11:15.988Z,11.11
2023-04-16T00:12:17.640Z,11.16
2023-04-16T00:13:19.253Z,11.22
2023-04-16T00:14:20.860Z,11.28
2023-04-16T00:15:22.527Z,11.34
2023-04-16T00:16:24.103Z,11.37
2023-04-16T00:17:25.764Z,11.34
2023-04-16T00:18:27.746Z,11.37
2023-04-16T00:19:29.358Z,11.41
2023-04-16T00:20:31.005Z,11.45
2023-04-16T00:21:32.575Z,11.48
2023-04-16T00:22:34.095Z,11.48
2023-04-16T00:23:35.800Z,11.48
2023-04-16T00:24:37.319Z,11.44
2023-04-16T00:25:38.854Z,11.37
2023-04-16T00:26:41.031Z,11.35
2023-04-16T00:27:42.613Z,11.32
2023-04-16T00:28:44.129Z,11.30
2023-04-16T00:29:45.790Z,11.24
2023-04-16T00:30:47.338Z,11.16
2023-04-16T00:31:48.935Z,11.12
2023-04-16T00:32:50.515Z,11.13
2023-04-16T00:33:52.018Z,11.17
2023-04-16T00:34:53.574Z,11.21
2023-04-16T00:35:55.100Z,11.23
2023-04-16T00:36:56.600Z,11.23
2023-04-16T00:37:58.102Z,11.27
2023-04-16T00:38:59.657Z,11.21
2023-04-16T00:40:01.475Z,11.10
2023-04-16T00:41:03.040Z,11.05
2023-04-16T00:42:04.561Z,11.02
2023-04-16T00:43:06.226Z,11.01
2023-04-16T00:44:07.786Z,11.00
2023-04-16T00:45:10.377Z,10.94
2023-04-16T00:46:12.127Z,10.95
2023-04-16T00:47:13.829Z,10.97
2023-04-16T00:48:15.584Z,11.01
2023-04-16T00:49:17.400Z,10.99
2023-04-16T00:50:19.104Z,10.99
2023-04-16T00:51:21.673Z,10.98
2023-04-16T00:52:23.205Z,11.02
2023-04-16T00:53:25.641Z,11.03
2023-04-16T00:54:27.221Z,11.03
2023-04-16T00:55:29.197Z,10.96
2023-04-16T00:56:30.985Z,10.87
2023-04-16T00:57:32.542Z,10.71
2023-04-16T00:58:35.646Z,10.47
2023-04-16T00:59:37.434Z,10.35
2023-04-16T01:00:38.965Z,10.39
2023-04-16T01:01:40.579Z,10.48
2023-04-16T01:02:42.478Z,10.53
2023-04-16T01:03:46.436Z,10.63
2023-04-16T01:04:48.175Z,10.73
2023-04-16T01:05:50.610Z,10.81
2023-04-16T01:06:52.272Z,10.87
2023-04-16T01:07:53.973Z,10.92
2023-04-16T01:08:55.609Z,10.96
2023-04-16T01:09:57.562Z,11.01
2023-04-16T01:10:59.159Z,11.05
2023-04-16T01:12:02.137Z,11.10
2023-04-16T01:13:03.671Z,11.11
2023-04-16T01:14:05.490Z,11.14
2023-04-16T01:15:07.787Z,11.15
2023-04-16T01:16:11.287Z,11.15
2023-04-16T01:17:12.900Z,11.06
2023-04-16T01:18:18.722Z,11.04
2023-04-16T01:19:20.383Z,11.00
2023-04-16T01:20:22.006Z,10.76
2023-04-16T01:21:23.581Z,10.56
2023-04-16T01:22:25.096Z,10.58
2023-04-16T01:23:26.603Z,10.61
2023-04-16T01:24:28.317Z,10.51
2023-04-16T01:25:29.864Z,10.43
2023-04-16T01:26:31.868Z,10.50
2023-04-16T01:27:33.507Z,10.52
2023-04-16T01:28:35.347Z,10.31
2023-04-16T01:29:37.122Z,10.13
2023-04-16T01:30:38.729Z,10.15
2023-04-16T01:31:40.455Z,10.26
2023-04-16T01:32:42.113Z,10.22
2023-04-16T01:33:43.696Z,10.27
2023-04-16T01:34:45.502Z,10.29
2023-04-16T01:35:47.129Z,10.30
2023-04-16T01:36:48.655Z,10.35
2023-04-16T01:37:51.065Z,10.39
2023-04-16T01:38:52.623Z,10.43
2023-04-16T01:39:54.239Z,10.48
2023-04-16T01:40:59.603Z,10.51
2023-04-16T01:42:02.430Z,10.50
2023-04-16T01:43:04.700Z,10.48
2023-04-16T01:44:06.437Z,10.49
2023-04-16T01:45:08.404Z,10.50
2023-04-16T01:46:18.731Z,10.51
2023-04-16T01:47:20.411Z,10.55
2023-04-16T01:48:22.189Z,10.61
2023-04-16T01:49:23.753Z,10.64
2023-04-16T01:50:25.321Z,10.64
2023-04-16T01:51:28.107Z,10.68
2023-04-16T01:52:30.297Z,10.72
2023-04-16T01:53:31.929Z,10.72
2023-04-16T01:54:33.433Z,10.61
2023-04-16T01:55:35.084Z,10.63
2023-04-16T01:56:36.620Z,10.69
2023-04-16T01:57:38.170Z,10.75
2023-04-16T01:58:41.360Z,10.79
2023-04-16T01:59:42.908Z,10.81
2023-04-16T02:00:44.507Z,10.84
2023-04-16T02:01:46.383Z,10.87
2023-04-16T02:02:49.454Z,10.92
2023-04-16T02:03:51.868Z,10.96
2023-04-16T02:04:53.853Z,10.99
2023-04-16T02:05:55.686Z,10.99
2023-04-16T02:06:57.224Z,10.99
2023-04-16T02:07:58.874Z,11.00
2023-04-16T02:09:00.495Z,10.97
2023-04-16T02:10:02.074Z,10.92
2023-04-16T02:11:03.737Z,10.92
2023-04-16T02:12:05.994Z,10.95
2023-04-16T02:13:07.561Z,10.97
2023-04-16T02:14:09.141Z,10.99
2023-04-16T02:15:11.233Z,10.99
2023-04-16T02:16:12.886Z,11.01
2023-04-16T02:17:15.609Z,11.04
2023-04-16T02:18:17.477Z,11.06
2023-04-16T02:19:19.074Z,11.08
2023-04-16T02:20:20.760Z,11.09
2023-04-16T02:21:22.345Z,11.10
2023-04-16T02:22:23.935Z,11.11
2023-04-16T02:23:25.638Z,11.12
2023-04-16T02:24:27.496Z,11.13
2023-04-16T02:25:29.087Z,11.14
2023-04-16T02:26:30.707Z,11.15
2023-04-16T02:27:32.329Z,11.12
2023-04-16T02:28:33.815Z,11.00
2023-04-16T02:29:35.829Z,10.88
2023-04-16T02:30:38.696Z,10.79
2023-04-16T02:31:40.411Z,10.65
2023-04-16T02:32:42.020Z,10.52
2023-04-16T02:33:43.727Z,10.40
2023-04-16T02:34:45.308Z,10.26
2023-04-16T02:35:48.682Z,10.24
2023-04-16T02:36:50.253Z,10.20
2023-04-16T02:37:51.832Z,10.20
2023-04-16T02:38:53.508Z,10.24
2023-04-16T02:39:55.251Z,10.25
2023-04-16T02:40:56.854Z,10.26
2023-04-16T02:41:59.438Z,10.17
2023-04-16T02:43:01.220Z,10.10
2023-04-16T02:44:02.804Z,10.11
2023-04-16T02:45:04.675Z,10.16
2023-04-16T02:46:06.724Z,10.17
2023-04-16T02:47:08.281Z,10.15
2023-04-16T02:48:10.042Z,10.07
2023-04-16T02:49:11.695Z,9.95
2023-04-16T02:50:13.661Z,9.87
2023-04-16T02:51:15.339Z,9.80
2023-04-16T02:52:16.868Z,9.79
2023-04-16T02:53:18.372Z,9.76
2023-04-16T02:54:19.882Z,9.64
2023-04-16T02:55:21.572Z,9.54
2023-04-16T02:56:23.081Z,9.44
2023-04-16T02:57:24.602Z,9.40
2023-04-16T02:58:27.020Z,9.40
2023-04-16T02:59:28.521Z,9.37
2023-04-16T03:00:30.124Z,9.34
2023-04-16T03:01:31.767Z,9.39
2023-04-16T03:02:33.592Z,9.41
2023-04-16T03:03:35.628Z,9.40
2023-04-16T03:04:37.298Z,9.35
2023-04-16T03:05:40.289Z,9.32
2023-04-16T03:06:42.076Z,9.27
2023-04-16T03:07:43.718Z,9.19
2023-04-16T03:08:45.429Z,9.14
2023-04-16T03:09:47.264Z,9.10
2023-04-16T03:10:48.895Z,9.03
2023-04-16T03:11:50.413Z,8.98
2023-04-16T03:12:51.992Z,8.93
2023-04-16T03:13:53.862Z,8.90
2023-04-16T03:14:55.473Z,8.89
2023-04-16T03:15:57.034Z,8.83
2023-04-16T03:16:58.779Z,8.83
2023-04-16T03:18:01.117Z,8.83
2023-04-16T03:19:02.753Z,8.84
2023-04-16T03:20:05.123Z,8.86
2023-04-16T03:21:06.684Z,8.81
2023-04-16T03:22:08.413Z,8.91
2023-04-16T03:23:10.008Z,8.96
2023-04-16T03:24:11.682Z,8.98
2023-04-16T03:25:13.659Z,9.05
2023-04-16T03:26:15.345Z,9.14
2023-04-16T03:27:16.902Z,9.26
2023-04-16T03:28:18.491Z,9.37
2023-04-16T03:29:20.459Z,9.47
2023-04-16T03:30:21.982Z,9.57
2023-04-16T03:31:26.649Z,9.64
2023-04-16T03:32:28.308Z,9.71
2023-04-16T03:33:29.903Z,9.80
2023-04-16T03:34:31.504Z,9.88
2023-04-16T03:35:33.404Z,9.98
2023-04-16T03:36:34.952Z,10.05
2023-04-16T03:37:36.510Z,10.13
2023-04-16T03:38:38.033Z,10.20
2023-04-16T03:39:39.634Z,10.24
2023-04-16T03:40:41.398Z,10.26
2023-04-16T03:41:43.028Z,10.27
2023-04-16T03:42:44.664Z,10.28
2023-04-16T03:43:46.229Z,10.32
2023-04-16T03:44:47.776Z,10.36
2023-04-16T03:45:49.303Z,10.38
2023-04-16T03:46:51.291Z,10.39
2023-04-16T03:47:53.018Z,10.37
2023-04-16T03:48:54.628Z,10.39
2023-04-16T03:49:56.202Z,10.44
2023-04-16T03:50:57.746Z,10.47
2023-04-16T03:51:59.384Z,10.52
2023-04-16T03:53:00.930Z,10.54
2023-04-16T03:54:02.499Z,10.55
2023-04-16T03:55:04.362Z,10.52
2023-04-16T03:56:06.206Z,10.52
2023-04-16T03:57:07.808Z,10.53
2023-04-16T03:58:09.708Z,10.54
2023-04-16T03:59:11.470Z,10.54
2023-04-16T04:00:13.314Z,10.60
2023-04-16T04:01:15.317Z,10.63
2023-04-16T04:02:17.046Z,10.69
2023-04-16T04:03:19.060Z,10.75
2023-04-16T04:04:21.239Z,10.79
2023-04-16T04:05:22.978Z,10.84
2023-04-16T04:06:24.561Z,10.86
2023-04-16T04:07:26.098Z,10.82
2023-04-16T04:08:27.653Z,10.67
2023-04-16T04:09:29.217Z,10.61
2023-04-16T04:10:37.323Z,10.46
2023-04-16T04:11:38.960Z,10.32
2023-04-16T04:12:40.584Z,10.24
2023-04-16T04:13:42.119Z,10.17
2023-04-16T04:14:43.631Z,10.09
2023-04-16T04:15:45.255Z,10.06
2023-04-16T04:16:46.878Z,10.08
2023-04-16T04:17:48.516Z,10.10
2023-04-16T04:18:50.236Z,10.09
2023-04-16T04:20:00.994Z,9.97
2023-04-16T04:21:07.591Z,9.88
2023-04-16T04:22:09.188Z,9.72
2023-04-16T04:23:10.968Z,9.64
2023-04-16T04:24:12.500Z,9.61
2023-04-16T04:25:14.346Z,9.51
2023-04-16T04:26:16.451Z,9.49
2023-04-16T04:27:18.013Z,9.51
2023-04-16T04:28:19.586Z,9.51
2023-04-16T04:29:21.225Z,9.54
2023-04-16T04:30:22.773Z,9.52
2023-04-16T04:31:24.450Z,9.48
2023-04-16T04:32:26.530Z,9.46
2023-04-16T04:33:28.661Z,9.49
2023-04-16T04:34:30.217Z,9.55
2023-04-16T04:35:31.865Z,9.57
2023-04-16T04:36:33.713Z,9.60
2023-04-16T04:37:35.304Z,9.60
2023-04-16T04:38:36.833Z,9.60
2023-04-16T04:39:38.406Z,9.53
2023-04-16T04:40:39.939Z,9.44
2023-04-16T04:41:41.518Z,9.40
2023-04-16T04:42:43.129Z,9.40
2023-04-16T04:43:44.654Z,9.49
2023-04-16T04:44:46.747Z,9.58
2023-04-16T04:45:49.301Z,9.55
2023-04-16T04:46:51.078Z,9.56
2023-04-16T04:47:53.119Z,9.62
2023-04-16T04:48:54.668Z,9.69
2023-04-16T04:49:56.225Z,9.61
2023-04-16T04:50:57.809Z,9.60
2023-04-16T04:51:59.425Z,9.67
2023-04-16T04:53:00.994Z,9.74
2023-04-16T04:54:02.532Z,9.79
2023-04-16T04:55:04.309Z,9.71
2023-04-16T04:56:12.326Z,9.73
2023-04-16T04:57:14.482Z,9.87
2023-04-16T04:58:16.023Z,9.99
2023-04-16T04:59:17.582Z,10.10
2023-04-16T05:00:19.340Z,10.08
2023-04-16T05:01:21.177Z,10.03
2023-04-16T05:02:22.804Z,9.99
2023-04-16T05:03:24.471Z,10.04
2023-04-16T05:04:26.313Z,10.14
2023-04-16T05:05:27.986Z,10.23
2023-04-16T05:06:29.702Z,10.32
2023-04-16T05:07:31.652Z,10.39
2023-04-16T05:08:33.354Z,10.42
2023-04-16T05:09:34.917Z,10.46
2023-04-16T05:10:36.453Z,10.51
2023-04-16T05:11:39.266Z,10.55
2023-04-16T05:12:40.855Z,10.58
2023-04-16T05:13:42.483Z,10.63
2023-04-16T05:14:44.038Z,10.69
2023-04-16T05:15:46.173Z,10.75
2023-04-16T05:16:47.758Z,10.74
2023-04-16T05:17:49.331Z,10.73
2023-04-16T05:18:50.953Z,10.73
2023-04-16T05:19:52.534Z,10.79
2023-04-16T05:20:54.131Z,10.86
2023-04-16T05:21:55.964Z,10.89
2023-04-16T05:22:57.486Z,10.96
2023-04-16T05:23:59.082Z,10.96
2023-04-16T05:25:00.730Z,10.94
2023-04-16T05:26:02.266Z,10.96
2023-04-16T05:27:03.885Z,10.96
2023-04-16T05:28:05.525Z,11.01
2023-04-16T05:29:07.165Z,11.02
2023-04-16T05:30:09.829Z,11.03
2023-04-16T05:31:11.406Z,11.00
2023-04-16T05:32:12.960Z,10.97
2023-04-16T05:33:14.535Z,11.07
2023-04-16T05:34:16.085Z,11.14
2023-04-16T05:35:17.862Z,11.20
2023-04-16T05:36:19.496Z,11.21
2023-04-16T05:37:21.081Z,11.21
2023-04-16T05:38:22.681Z,11.21
2023-04-16T05:39:24.246Z,11.29
2023-04-16T05:40:26.222Z,11.38
2023-04-16T05:41:27.795Z,11.41
2023-04-16T05:42:29.536Z,11.40
2023-04-16T05:43:31.210Z,11.44
2023-04-16T05:44:34.056Z,11.45
2023-04-16T05:45:40.882Z,11.46
2023-04-16T05:46:42.507Z,11.54
2023-04-16T05:47:44.356Z,11.54
2023-04-16T05:48:46.149Z,11.42
2023-04-16T05:49:47.663Z,11.37
2023-04-16T05:50:49.430Z,11.34
2023-04-16T05:51:51.190Z,11.40
2023-04-16T05:52:52.688Z,11.53
2023-04-16T05:53:54.228Z,11.61
2023-04-16T05:54:55.939Z,11.68
2023-04-16T05:55:57.537Z,11.75
2023-04-16T05:57:01.094Z,11.85
2023-04-16T05:58:05.929Z,11.98
2023-04-16T05:59:07.691Z,12.07
2023-04-16T06:00:09.743Z,12.23
2023-04-16T06:01:11.546Z,12.36
2023-04-16T06:02:13.213Z,12.47
2023-04-16T06:03:14.964Z,12.53
2023-04-16T06:04:16.774Z,12.65
2023-04-16T06:05:18.778Z,12.74
2023-04-16T06:06:20.381Z,12.80
2023-04-16T06:07:22.509Z,12.88
2023-04-16T06:08:24.108Z,12.99
2023-04-16T06:09:25.609Z,12.94
2023-04-16T06:10:27.453Z,12.89
2023-04-16T06:11:30.672Z,12.85
2023-04-16T06:12:32.273Z,12.78
2023-04-16T06:13:33.807Z,12.67
2023-04-16T06:14:35.750Z,12.63
2023-04-16T06:15:37.438Z,12.62
2023-04-16T06:16:39.018Z,12.66
2023-04-16T06:17:40.828Z,12.61
2023-04-16T06:18:42.416Z,12.50
2023-04-16T06:19:43.994Z,12.30
2023-04-16T06:20:45.648Z,12.16
2023-04-16T06:21:47.390Z,12.10
2023-04-16T06:22:48.972Z,12.00
2023-04-16T06:23:50.555Z,11.95
2023-04-16T06:24:53.237Z,11.94
2023-04-16T06:25:55.267Z,11.94
2023-04-16T06:26:57.533Z,11.96
2023-04-16T06:27:59.069Z,11.90
2023-04-16T06:29:01.077Z,11.84
2023-04-16T06:30:02.603Z,11.79
2023-04-16T06:31:04.578Z,11.72
2023-04-16T06:32:06.273Z,11.72
2023-04-16T06:33:07.872Z,11.75
2023-04-16T06:34:09.418Z,11.80
2023-04-16T06:35:10.991Z,11.85
2023-04-16T06:36:12.612Z,11.84
2023-04-16T06:37:14.169Z,11.81
2023-04-16T06:38:15.716Z,11.86
2023-04-16T06:39:17.375Z,11.93
2023-04-16T06:40:18.893Z,11.96
2023-04-16T06:41:22.748Z,12.06
2023-04-16T06:42:24.340Z,12.16
2023-04-16T06:43:26.105Z,12.24
2023-04-16T06:44:27.653Z,12.20
2023-04-16T06:45:29.188Z,12.15
2023-04-16T06:46:30.988Z,12.21
2023-04-16T06:47:32.622Z,12.31
2023-04-16T06:48:34.178Z,12.36
2023-04-16T06:49:35.833Z,12.46
2023-04-16T06:50:37.728Z,12.54
2023-04-16T06:51:39.281Z,12.67
2023-04-16T06:52:40.881Z,12.80
2023-04-16T06:53:42.657Z,12.94
2023-04-16T06:54:44.223Z,13.11
2023-04-16T06:55:45.947Z,13.28
2023-04-16T06:56:47.546Z,13.38
2023-04-16T06:57:49.133Z,13.44
2023-04-16T06:58:51.361Z,13.54
2023-04-16T06:59:52.909Z,13.65
2023-04-16T07:00:54.526Z,13.73
2023-04-16T07:01:56.808Z,13.79
2023-04-16T07:03:00.328Z,13.82
2023-04-16T07:04:02.407Z,13.90
2023-04-16T07:05:04.535Z,13.99
2023-04-16T07:06:06.251Z,14.04
2023-04-16T07:07:08.822Z,14.06
2023-04-16T07:08:10.596Z,14.07
2023-04-16T07:09:12.445Z,14.13
2023-04-16T07:10:14.137Z,14.15
2023-04-16T07:11:15.756Z,13.89
2023-04-16T07:12:17.493Z,13.39
2023-04-16T07:13:19.075Z,13.06
2023-04-16T07:14:20.689Z,12.84
2023-04-16T07:15:22.274Z,12.67
2023-04-16T07:16:23.934Z,12.54
2023-04-16T07:17:25.688Z,12.56
2023-04-16T07:18:27.428Z,12.54
2023-04-16T07:19:32.481Z,12.48
2023-04-16T07:20:34.056Z,12.38
2023-04-16T07:21:35.786Z,12.31
2023-04-16T07:22:37.385Z,12.31
2023-04-16T07:23:38.915Z,12.26
2023-04-16T07:24:40.495Z,12.16
2023-04-16T07:25:42.464Z,12.23
2023-04-16T07:26:44.021Z,12.36
2023-04-16T07:27:45.588Z,12.55
2023-04-16T07:28:47.103Z,12.71
2023-04-16T07:29:50.343Z,12.89
2023-04-16T07:30:52.015Z,13.09
2023-04-16T07:31:53.583Z,13.17
2023-04-16T07:32:56.481Z,13.07
2023-04-16T07:33:58.676Z,12.95
2023-04-16T07:35:00.472Z,13.01
2023-04-16T07:36:02.020Z,13.06
2023-04-16T07:37:03.600Z,13.18
2023-04-16T07:38:05.933Z,13.27
2023-04-16T07:39:07.583Z,13.37
2023-04-16T07:40:09.625Z,13.51
2023-04-16T07:41:11.178Z,13.62
2023-04-16T07:42:12.801Z,13.73
2023-04-16T07:43:17.413Z,13.72
2023-04-16T07:44:18.932Z,13.72
2023-04-16T07:45:20.492Z,13.72
2023-04-16T07:46:22.107Z,13.72
2023-04-16T07:47:23.843Z,13.86
2023-04-16T07:48:25.513Z,14.08
2023-04-16T07:49:27.087Z,14.39
2023-04-16T07:50:28.650Z,14.62
2023-04-16T07:51:30.291Z,14.89
2023-04-16T07:52:31.830Z,15.15
2023-04-16T07:53:33.434Z,15.35
2023-04-16T07:54:34.964Z,15.58
2023-04-16T07:55:36.546Z,15.63
2023-04-16T07:56:38.095Z,15.36
2023-04-16T07:57:41.083Z,15.54
2023-04-16T07:58:42.623Z,15.74
2023-04-16T07:59:44.154Z,15.90
2023-04-16T08:00:45.901Z,15.81
2023-04-16T08:01:47.460Z,15.67
2023-04-16T08:02:49.269Z,15.45
2023-04-16T08:03:51.347Z,15.27
2023-04-16T08:04:53.120Z,15.32
2023-04-16T08:05:54.757Z,15.62
2023-04-16T08:06:56.416Z,15.86
2023-04-16T08:07:58.015Z,16.09
2023-04-16T08:08:59.528Z,16.35
2023-04-16T08:10:01.444Z,16.56
2023-04-16T08:11:03.177Z,16.76
2023-04-16T08:12:05.078Z,16.89
2023-04-16T08:13:06.635Z,17.05
2023-04-16T08:14:08.408Z,17.25
2023-04-16T08:15:10.304Z,17.39
2023-04-16T08:16:12.162Z,17.52
2023-04-16T08:17:17.389Z,17.49
2023-04-16T08:18:19.299Z,17.32
2023-04-16T08:19:20.902Z,17.36
2023-04-16T08:20:22.651Z,17.51
2023-04-16T08:21:24.207Z,17.55
2023-04-16T08:22:26.473Z,17.67
2023-04-16T08:23:28.127Z,17.73
2023-04-16T08:24:29.650Z,17.78
2023-04-16T08:25:31.224Z,17.88
2023-04-16T08:26:32.757Z,17.98
2023-04-16T08:27:34.263Z,18.08
2023-04-16T08:28:35.928Z,18.02
2023-04-16T08:29:37.720Z,17.41
2023-04-16T08:30:39.399Z,17.18
2023-04-16T08:31:41.708Z,16.89
2023-04-16T08:32:43.781Z,16.83
2023-04-16T08:33:45.402Z,17.10
2023-04-16T08:34:46.997Z,17.44
2023-04-16T08:35:48.554Z,17.70
2023-04-16T08:36:50.112Z,17.99
2023-04-16T08:37:51.703Z,18.16
2023-04-16T08:38:53.284Z,18.39
2023-04-16T08:39:54.797Z,18.44
2023-04-16T08:40:58.979Z,18.56
2023-04-16T08:42:04.725Z,18.61
2023-04-16T08:43:13.733Z,18.65
2023-04-16T08:44:21.879Z,18.69
2023-04-16T08:45:25.997Z,18.72
2023-04-16T08:46:30.127Z,18.70
2023-04-16T08:47:34.462Z,18.53
2023-04-16T08:48:37.384Z,18.43
2023-04-16T08:49:43.970Z,18.48
2023-04-16T08:50:46.748Z,18.35
2023-04-16T08:51:52.204Z,18.25
2023-04-16T08:52:58.160Z,18.22
2023-04-16T08:54:08.592Z,18.23
2023-04-16T08:55:14.439Z,18.21
2023-04-16T08:56:19.892Z,18.16
2023-04-16T08:57:23.963Z,18.04
2023-04-16T08:58:31.840Z,17.99
2023-04-16T08:59:34.187Z,17.96
2023-04-16T09:00:38.322Z,17.84
2023-04-16T09:01:41.950Z,17.87
2023-04-16T09:02:43.934Z,17.90
2023-04-16T09:03:48.318Z,17.94
2023-04-16T09:04:51.539Z,17.91
2023-04-16T09:05:55.566Z,17.85
2023-04-16T09:06:58.991Z,17.92
2023-04-16T09:08:00.643Z,18.01
2023-04-16T09:09:04.861Z,18.08
2023-04-16T09:10:08.342Z,18.15
2023-04-16T09:11:10.132Z,18.26
2023-04-16T09:12:12.092Z,18.30
2023-04-16T09:13:16.437Z,18.31
2023-04-16T09:14:18.383Z,18.39
2023-04-16T09:15:21.296Z,18.45
2023-04-16T09:16:24.978Z,18.50
2023-04-16T09:17:27.287Z,18.61
2023-04-16T09:18:28.863Z,18.62
2023-04-16T09:19:30.679Z,18.65
2023-04-16T09:20:32.206Z,18.69
2023-04-16T09:21:33.776Z,18.70
2023-04-16T09:22:36.298Z,18.69
2023-04-16T09:23:41.082Z,18.74
2023-04-16T09:24:42.752Z,18.80
2023-04-16T09:25:44.570Z,18.86
2023-04-16T09:26:46.598Z,18.89
2023-04-16T09:27:51.020Z,18.95
2023-04-16T09:28:52.580Z,19.05
2023-04-16T09:29:54.177Z,19.11
2023-04-16T09:31:08.912Z,19.19
2023-04-16T09:32:11.953Z,19.25
2023-04-16T09:33:24.729Z,19.24
2023-04-16T09:34:27.105Z,19.26
2023-04-16T09:35:45.721Z,19.13
2023-04-16T09:36:47.366Z,19.12
2023-04-16T09:37:58.238Z,19.34
2023-04-16T09:39:00.854Z,19.43
2023-04-16T09:40:04.403Z,19.44
2023-04-16T09:41:08.238Z,19.44
2023-04-16T09:42:10.910Z,19.46
2023-04-16T09:43:14.504Z,19.38
2023-04-16T09:44:16.230Z,19.36
2023-04-16T09:45:17.848Z,19.35
2023-04-16T09:46:19.455Z,19.35
2023-04-16T09:47:22.198Z,19.34
2023-04-16T09:48:33.776Z,19.36
2023-04-16T09:49:41.097Z,19.44
2023-04-16T09:50:52.192Z,19.32
2023-04-16T09:51:56.338Z,19.29
2023-04-16T09:53:02.635Z,19.32
2023-04-16T09:54:07.746Z,19.37
2023-04-16T09:55:09.462Z,19.37
2023-04-16T09:56:12.370Z,19.47
2023-04-16T09:57:14.990Z,19.49
2023-04-16T09:58:20.112Z,18.99
2023-04-16T09:59:23.672Z,18.78
2023-04-16T10:00:25.561Z,18.57
2023-04-16T10:01:27.201Z,18.46
2023-04-16T10:02:29.748Z,18.39
2023-04-16T10:03:33.295Z,18.30
2023-04-16T10:04:48.613Z,18.32
2023-04-16T10:05:53.785Z,18.41
2023-04-16T10:07:05.903Z,18.38
2023-04-16T10:08:14.955Z,18.51
2023-04-16T10:09:16.573Z,18.60
2023-04-16T10:10:18.302Z,18.75
2023-04-16T10:11:21.414Z,18.90
2023-04-16T10:12:23.035Z,18.98
2023-04-16T10:13:27.784Z,18.78
2023-04-16T10:14:29.440Z,18.48
2023-04-16T10:15:31.149Z,18.25
2023-04-16T10:16:33.789Z,18.32
2023-04-16T10:17:36.575Z,18.40
2023-04-16T10:18:40.646Z,18.50
2023-04-16T10:19:42.335Z,18.52
2023-04-16T10:20:44.654Z,18.71
2023-04-16T10:21:46.452Z,18.93
2023-04-16T10:22:48.838Z,19.00
2023-04-16T10:23:52.143Z,19.10
2023-04-16T10:24:54.793Z,19.17
2023-04-16T10:25:58.596Z,19.34
2023-04-16T10:27:00.715Z,19.51
2023-04-16T10:28:03.366Z,19.53
2023-04-16T10:29:06.769Z,19.51
2023-04-16T10:30:09.443Z,19.51
2023-04-16T10:31:12.594Z,19.47
2023-04-16T10:32:14.647Z,19.40
2023-04-16T10:33:16.364Z,19.47
2023-04-16T10:34:18.579Z,19.61
2023-04-16T10:35:21.369Z,19.86
2023-04-16T10:36:25.056Z,19.99
2023-04-16T10:37:31.397Z,20.10
2023-04-16T10:38:33.264Z,20.09
2023-04-16T10:39:39.137Z,20.25
2023-04-16T10:40:45.079Z,20.42
2023-04-16T10:41:46.953Z,20.53
2023-04-16T10:42:59.564Z,20.63
2023-04-16T10:44:11.107Z,20.75
2023-04-16T10:45:12.656Z,20.77
2023-04-16T10:46:21.262Z,20.66
2023-04-16T10:47:24.943Z,20.49
2023-04-16T10:48:30.800Z,20.27
2023-04-16T10:49:37.331Z,20.04
2023-04-16T10:50:39.764Z,19.90
2023-04-16T10:51:42.068Z,19.91
2023-04-16T10:52:43.640Z,20.02
2023-04-16T10:53:45.272Z,19.82
2023-04-16T10:54:48.512Z,19.87
2023-04-16T10:56:15.428Z,19.89
2023-04-16T10:57:19.682Z,20.01
2023-04-16T10:58:31.670Z,20.13
2023-04-16T10:59:35.293Z,20.25
2023-04-16T11:00:51.186Z,20.27
2023-04-16T11:01:56.035Z,20.25
2023-04-16T11:02:57.824Z,20.29
2023-04-16T11:04:02.059Z,20.29
2023-04-16T11:05:04.036Z,20.13
2023-04-16T11:06:17.639Z,19.84
2023-04-16T11:07:20.936Z,19.86
2023-04-16T11:08:23.798Z,19.74
2023-04-16T11:10:05.745Z,19.63
2023-04-16T11:11:07.726Z,19.60
2023-04-16T11:12:12.750Z,19.47
2023-04-16T11:13:15.834Z,19.29
2023-04-16T11:14:17.602Z,19.26
2023-04-16T11:15:23.370Z,19.29
2023-04-16T11:16:26.301Z,19.39
2023-04-16T11:17:36.585Z,19.46
2023-04-16T11:18:41.620Z,19.53
2023-04-16T11:19:53.616Z,19.51
2023-04-16T11:20:55.589Z,19.41
2023-04-16T11:21:57.303Z,19.41
2023-04-16T11:22:59.065Z,19.46
2023-04-16T11:24:00.627Z,19.51
2023-04-16T11:25:02.602Z,19.49
2023-04-16T11:26:04.185Z,19.48
2023-04-16T11:27:06.033Z,19.40
2023-04-16T11:28:07.589Z,19.23
2023-04-16T11:29:15.284Z,19.24
2023-04-16T11:30:17.354Z,19.14
2023-04-16T11:31:18.967Z,19.08
2023-04-16T11:32:22.684Z,19.09
2023-04-16T11:33:25.357Z,19.11
2023-04-16T11:34:27.460Z,19.08
2023-04-16T11:35:29.078Z,19.14
2023-04-16T11:36:43.632Z,19.24
2023-04-16T11:37:46.391Z,19.33
2023-04-16T11:38:47.968Z,19.37
2023-04-16T11:39:51.333Z,19.45
2023-04-16T11:40:54.116Z,19.40
2023-04-16T11:41:56.040Z,19.51
2023-04-16T11:43:03.227Z,19.57
2023-04-16T11:44:21.396Z,19.50
2023-04-16T11:45:23.071Z,19.55
2023-04-16T11:46:38.193Z,19.54
2023-04-16T11:47:55.530Z,19.66
2023-04-16T11:48:57.144Z,19.65
2023-04-16T11:50:15.018Z,19.55
2023-04-16T11:51:17.112Z,19.53
2023-04-16T11:52:33.923Z,19.54
2023-04-16T11:53:37.119Z,19.57
2023-04-16T11:54:38.781Z,19.46
2023-04-16T11:55:45.671Z,19.60
2023-04-16T11:56:48.729Z,19.59
2023-04-16T11:57:51.918Z,19.64
2023-04-16T11:59:10.009Z,19.76
2023-04-16T12:00:15.866Z,19.75
2023-04-16T12:01:21.465Z,19.62
2023-04-16T12:02:50.139Z,19.71
2023-04-16T12:04:02.509Z,19.88
2023-04-16T12:05:30.985Z,19.97
2023-04-16T12:06:32.859Z,19.95
2023-04-16T12:07:45.714Z,19.96
2023-04-16T12:08:47.275Z,19.91
2023-04-16T12:09:49.272Z,19.80
2023-04-16T12:10:55.218Z,19.89
2023-04-16T12:11:56.852Z,19.96
2023-04-16T12:13:15.157Z,20.05
2023-04-16T12:14:16.726Z,20.06
2023-04-16T12:15:18.402Z,20.04
2023-04-16T12:16:21.100Z,20.09
2023-04-16T12:17:23.540Z,20.14
2023-04-16T12:18:27.099Z,20.08
2023-04-16T12:19:28.871Z,20.10
2023-04-16T12:20:40.447Z,20.13
2023-04-16T12:21:47.152Z,20.21
2023-04-16T12:22:49.725Z,20.21
2023-04-16T12:23:54.113Z,20.18
2023-04-16T12:24:58.265Z,20.19
2023-04-16T12:26:10.430Z,20.10
2023-04-16T12:27:13.015Z,20.06
2023-04-16T12:28:16.544Z,20.08
2023-04-16T12:29:22.411Z,19.98
2023-04-16T12:30:26.752Z,19.99
2023-04-16T12:31:38.290Z,19.88
2023-04-16T12:32:41.913Z,19.76
2023-04-16T12:33:43.559Z,19.67
2023-04-16T12:34:51.656Z,19.49
2023-04-16T12:35:53.210Z,19.39
2023-04-16T12:37:09.621Z,19.43
2023-04-16T12:38:12.043Z,19.51
2023-04-16T12:39:15.092Z,19.60
2023-04-16T12:40:16.733Z,19.67
2023-04-16T12:41:18.414Z,19.64
2023-04-16T12:42:21.133Z,19.78
2023-04-16T12:43:22.779Z,19.75
2023-04-16T12:44:24.334Z,19.60
2023-04-16T12:45:26.082Z,19.52
2023-04-16T12:46:27.638Z,19.38
2023-04-16T12:47:29.284Z,19.28
2023-04-16T12:48:32.328Z,19.37
2023-04-16T12:49:33.902Z,19.39
2023-04-16T12:50:35.584Z,19.31
2023-04-16T12:51:38.326Z,19.18
2023-04-16T12:52:39.963Z,19.10
2023-04-16T12:53:41.720Z,19.06
2023-04-16T12:54:43.412Z,19.02
2023-04-16T12:55:45.551Z,18.99
2023-04-16T12:56:47.138Z,18.94
2023-04-16T12:57:49.185Z,19.05
2023-04-16T12:58:51.916Z,18.99
2023-04-16T12:59:53.456Z,19.01
2023-04-16T13:00:54.987Z,19.09
2023-04-16T13:01:56.538Z,19.14
2023-04-16T13:02:58.203Z,19.04
2023-04-16T13:04:00.179Z,18.91
2023-04-16T13:05:02.070Z,18.86
2023-04-16T13:06:04.405Z,18.88
2023-04-16T13:07:06.033Z,18.89
2023-04-16T13:08:07.593Z,18.88
2023-04-16T13:09:09.333Z,18.79
2023-04-16T13:10:12.073Z,18.80
2023-04-16T13:11:13.762Z,18.80
2023-04-16T13:12:15.676Z,18.71
2023-04-16T13:13:17.294Z,18.70
2023-04-16T13:14:20.407Z,18.64
2023-04-16T13:15:21.931Z,18.55
2023-04-16T13:16:23.811Z,18.57
2023-04-16T13:17:25.485Z,18.55
2023-04-16T13:18:29.575Z,18.46
2023-04-16T13:19:31.482Z,18.35
2023-04-16T13:20:33.513Z,18.21
2023-04-16T13:21:35.079Z,18.14
2023-04-16T13:22:36.847Z,18.08
2023-04-16T13:23:38.409Z,18.00
2023-04-16T13:24:40.037Z,17.98
2023-04-16T13:25:41.612Z,17.98
2023-04-16T13:26:43.528Z,17.90
2023-04-16T13:27:45.139Z,17.78
2023-04-16T13:28:46.728Z,17.73
2023-04-16T13:29:48.293Z,17.63
2023-04-16T13:30:50.097Z,17.42
2023-04-16T13:31:52.151Z,17.26
2023-04-16T13:32:54.033Z,17.18